Time;durP1;ratioP1;P1;durP2;ratioP2;P2;SDS_P1;SDS_P2;PMS_P1;PMS_P2;Temp;Humidity;BMP_temperature;BMP_pressure;BME280_temperature;BME280_humidity;BME280_pressure;Samples;Min_cycle;Max_cycle;Signal;HPM_P1;HPM_P2
2023/12/06 00:00:03;;;;;;;6.00;2.28;;;2.80;79.50;;;;;;5072409;28;20048;-73
2023/12/06 00:02:29;;;;;;;5.07;2.30;;;2.80;79.10;;;;;;5072053;28;20401;-73
2023/12/06 00:04:55;;;;;;;4.97;2.47;;;2.90;79.80;;;;;;5072010;28;20056;-70
2023/12/06 00:07:23;;;;;;;5.80;3.40;;;2.90;79.70;;;;;;5038170;28;20075;-70
2023/12/06 00:09:49;;;;;;;3.42;1.73;;;2.90;79.70;;;;;;5053942;28;20072;-73
2023/12/06 00:12:15;;;;;;;5.00;2.10;;;2.90;79.60;;;;;;5071661;28;20039;-70
2023/12/06 00:14:41;;;;;;;3.30;2.13;;;3.00;79.60;;;;;;5053951;28;20064;-73
2023/12/06 00:17:07;;;;;;;4.53;1.77;;;2.90;79.50;;;;;;5070970;28;20029;-73
2023/12/06 00:19:33;;;;;;;4.20;3.15;;;3.00;79.40;;;;;;5071065;28;20045;-74
2023/12/06 00:21:59;;;;;;;3.33;2.00;;;3.00;79.40;;;;;;5071723;28;20876;-73
2023/12/06 00:24:25;;;;;;;3.92;2.78;;;3.00;79.20;;;;;;5053941;28;20043;-74
2023/12/06 00:26:51;;;;;;;3.80;2.47;;;3.10;79.20;;;;;;5072001;28;20074;-71
2023/12/06 00:29:17;;;;;;;7.22;3.17;;;3.00;78.90;;;;;;5072250;28;20093;-73
2023/12/06 00:31:43;;;;;;;;;;;3.10;79.00;;;;;;5070852;28;20037;-73
2023/12/06 00:34:09;;;;;;;2.05;1.58;;;3.10;78.90;;;;;;5072099;28;20284;-73
2023/12/06 00:36:35;;;;;;;5.20;3.05;;;3.10;78.80;;;;;;5070654;28;20040;-73
2023/12/06 00:39:01;;;;;;;5.15;2.53;;;3.10;78.70;;;;;;5070707;28;20294;-73
2023/12/06 00:41:27;;;;;;;7.65;2.60;;;3.10;78.40;;;;;;5071427;28;20036;-74
2023/12/06 00:43:53;;;;;;;2.65;1.48;;;3.10;78.40;;;;;;5071727;28;20037;-73
2023/12/06 00:46:20;;;;;;;4.47;2.40;;;3.10;78.50;;;;;;5053987;28;20033;-70
2023/12/06 00:48:46;;;;;;;3.50;2.05;;;3.10;78.70;;;;;;5071906;28;20061;-73
2023/12/06 00:51:12;;;;;;;3.60;2.10;;;3.10;78.60;;;;;;5071030;28;20508;-70
2023/12/06 00:53:38;;;;;;;5.47;2.83;;;3.10;78.70;;;;;;5070295;28;20032;-71
2023/12/06 00:56:12;;;;;;;3.35;1.58;;;3.10;78.40;;;;;;5071657;28;20040;-73
2023/12/06 00:58:38;;;;;;;4.57;3.20;;;3.00;78.00;;;;;;5073663;28;20036;-70
2023/12/06 01:01:04;;;;;;;2.97;1.75;;;3.10;78.20;;;;;;5073567;28;20505;-70
2023/12/06 01:03:30;;;;;;;7.10;2.17;;;3.00;78.20;;;;;;5075207;28;20036;-73
2023/12/06 01:05:56;;;;;;;3.22;1.92;;;3.00;78.30;;;;;;5075266;28;20036;-73
2023/12/06 01:08:24;;;;;;;3.97;2.78;;;3.10;78.30;;;;;;5074166;28;20049;-73
2023/12/06 01:10:50;;;;;;;3.17;2.17;;;3.10;79.00;;;;;;5073435;28;20117;-73
2023/12/06 01:13:18;;;;;;;2.35;1.67;;;3.10;78.20;;;;;;5073828;28;20112;-71
2023/12/06 01:15:44;;;;;;;4.78;2.35;;;3.10;77.80;;;;;;5073757;28;20036;-71
2023/12/06 01:18:10;;;;;;;3.92;2.28;;;3.10;77.80;;;;;;5074995;28;20045;-74
2023/12/06 01:20:38;;;;;;;3.80;2.25;;;3.10;77.70;;;;;;5073190;28;20032;-70
2023/12/06 01:23:05;;;;;;;3.00;1.88;;;3.10;77.70;;;;;;5074916;28;20465;-70
2023/12/06 01:25:33;;;;;;;5.38;3.22;;;3.10;77.40;;;;;;5073600;28;20037;-74
2023/12/06 01:27:59;;;;;;;4.13;2.55;;;3.10;76.90;;;;;;5073664;28;20044;-73
2023/12/06 01:30:25;;;;;;;4.80;2.13;;;3.20;77.00;;;;;;5072965;28;20041;-73
2023/12/06 01:32:51;;;;;;;2.35;1.13;;;3.20;77.60;;;;;;5073473;28;20371;-73
2023/12/06 01:35:18;;;;;;;4.82;2.75;;;3.20;77.60;;;;;;5073421;28;20452;-70
2023/12/06 01:37:44;;;;;;;3.75;2.22;;;3.20;77.40;;;;;;5073647;28;20033;-71
2023/12/06 01:40:11;;;;;;;8.63;3.58;;;3.20;77.50;;;;;;5074187;28;20040;-74
2023/12/06 01:42:37;;;;;;;10.70;3.85;;;3.20;77.00;;;;;;5074727;28;20371;-71
2023/12/06 01:45:03;;;;;;;11.95;4.65;;;3.20;77.60;;;;;;5074655;28;20055;-74
2023/12/06 01:47:30;;;;;;;8.82;4.82;;;3.30;77.20;;;;;;5056750;28;20064;-73
2023/12/06 01:49:59;;;;;;;9.07;4.50;;;3.30;77.70;;;;;;5073375;28;20490;-70
2023/12/06 01:52:26;;;;;;;9.18;4.63;;;3.30;77.50;;;;;;5072531;28;20033;-71
2023/12/06 01:54:52;;;;;;;;;;;3.30;77.10;;;;;;5073248;28;20031;-70
2023/12/06 01:57:18;;;;;;;8.63;6.03;;;3.30;77.00;;;;;;5073217;28;20007;-70
2023/12/06 01:59:44;;;;;;;;;;;3.30;76.90;;;;;;5073758;28;20036;-70
2023/12/06 02:02:13;;;;;;;9.13;6.45;;;3.30;77.40;;;;;;5073727;28;19985;-70
2023/12/06 02:04:39;;;;;;;10.15;5.88;;;3.30;77.40;;;;;;5074081;28;20525;-73
2023/12/06 02:07:05;;;;;;;;;;;3.30;77.40;;;;;;5073599;28;20107;-73
2023/12/06 02:09:32;;;;;;;4.05;2.35;;;3.30;77.40;;;;;;5072662;28;19943;-73
2023/12/06 02:11:57;;;;;;;;;;;3.30;77.30;;;;;;5074066;28;20036;-73
2023/12/06 02:14:24;;;;;;;5.03;2.35;;;3.30;77.40;;;;;;5055708;28;20002;-73
2023/12/06 02:16:50;;;;;;;5.25;3.35;;;3.30;77.20;;;;;;5073932;28;20039;-73
2023/12/06 02:19:25;;;;;;;5.47;2.97;;;3.30;77.00;;;;;;5074147;28;20082;-70
2023/12/06 02:21:51;;;;;;;2.65;1.98;;;3.30;76.90;;;;;;5073460;28;20036;-73
2023/12/06 02:24:18;;;;;;;4.68;2.20;;;3.20;77.10;;;;;;5073978;28;20098;-70
2023/12/06 02:26:45;;;;;;;7.80;3.40;;;3.20;77.10;;;;;;5072467;28;20032;-73
2023/12/06 02:29:11;;;;;;;6.63;3.30;;;3.20;77.10;;;;;;5073928;28;20033;-71
2023/12/06 02:31:38;;;;;;;4.85;2.97;;;3.20;77.20;;;;;;5073354;28;20493;-73
2023/12/06 02:34:17;;;;;;;3.67;2.45;;;3.30;77.30;;;;;;5072347;28;20036;-73
2023/12/06 02:36:49;;;;;;;8.65;1.85;;;3.30;77.10;;;;;;5072355;28;20048;-70
2023/12/06 02:39:17;;;;;;;3.92;2.30;;;3.30;77.00;;;;;;5072223;28;20044;-73
2023/12/06 02:41:44;;;;;;;3.22;1.63;;;3.30;77.00;;;;;;5073034;28;20032;-73
2023/12/06 02:44:10;;;;;;;3.25;1.98;;;3.30;76.90;;;;;;5072001;28;20508;-73
2023/12/06 02:46:37;;;;;;;4.75;2.28;;;3.30;77.10;;;;;;5055727;28;20425;-71
2023/12/06 02:49:03;;;;;;;3.03;1.67;;;3.30;77.20;;;;;;5072207;28;20044;-73
2023/12/06 02:51:29;;;;;;;;;;;3.30;77.40;;;;;;5071947;28;20064;-73
2023/12/06 02:53:55;;;;;;;3.78;2.50;;;3.30;77.40;;;;;;5073297;28;19946;-73
2023/12/06 02:56:21;;;;;;;3.05;1.58;;;3.20;77.40;;;;;;5072856;28;20044;-73
2023/12/06 02:58:47;;;;;;;2.17;1.45;;;3.20;76.80;;;;;;5071902;28;20032;-71
2023/12/06 03:01:13;;;;;;;6.07;3.25;;;3.20;77.50;;;;;;5072666;28;20402;-71
2023/12/06 03:03:39;;;;;;;4.05;1.17;;;3.20;77.30;;;;;;5071556;28;20053;-73
2023/12/06 03:06:06;;;;;;;3.53;2.25;;;3.20;77.30;;;;;;5073098;28;20032;-70
2023/12/06 03:08:32;;;;;;;5.13;2.38;;;3.20;77.30;;;;;;5073135;28;20067;-73
2023/12/06 03:10:58;;;;;;;3.05;1.73;;;3.30;77.40;;;;;;5070990;28;20028;-73
2023/12/06 03:13:24;;;;;;;2.72;1.60;;;3.20;77.20;;;;;;5072714;28;20385;-70
2023/12/06 03:15:50;;;;;;;2.08;0.88;;;3.20;77.20;;;;;;5071387;28;20033;-71
2023/12/06 03:18:16;;;;;;;4.68;3.08;;;3.20;77.00;;;;;;5071654;28;20102;-73
2023/12/06 03:20:42;;;;;;;5.57;2.60;;;3.20;76.90;;;;;;5070513;28;20444;-73
2023/12/06 03:23:08;;;;;;;3.65;2.25;;;3.20;76.70;;;;;;5072698;28;20040;-73
2023/12/06 03:25:34;;;;;;;3.95;2.95;;;3.20;76.50;;;;;;5071432;28;20059;-73
2023/12/06 03:28:00;;;;;;;16.73;4.05;;;3.20;76.20;;;;;;5072493;28;20078;-73
2023/12/06 03:30:26;;;;;;;4.10;2.83;;;3.20;76.00;;;;;;5071002;28;20047;-73
2023/12/06 03:32:52;;;;;;;3.75;1.67;;;3.20;75.80;;;;;;5071139;28;20024;-71
2023/12/06 03:35:18;;;;;;;2.72;2.33;;;3.20;76.00;;;;;;5054383;28;20056;-73
2023/12/06 03:37:44;;;;;;;3.78;1.40;;;3.20;76.20;;;;;;5071340;28;20033;-71
2023/12/06 03:40:11;;;;;;;2.17;1.27;;;3.20;76.20;;;;;;5053716;28;20040;-73
2023/12/06 03:42:37;;;;;;;2.90;1.40;;;3.20;76.30;;;;;;5071079;28;20398;-73
2023/12/06 03:45:04;;;;;;;6.47;2.08;;;3.20;76.50;;;;;;5071186;28;20067;-73
2023/12/06 03:47:30;;;;;;;4.82;2.10;;;3.20;76.40;;;;;;5072633;28;20047;-73
2023/12/06 03:49:56;;;;;;;4.90;1.75;;;3.20;76.70;;;;;;5071242;28;20448;-73
2023/12/06 03:52:22;;;;;;;5.50;2.88;;;3.10;77.10;;;;;;5070376;28;20029;-73
2023/12/06 03:54:49;;;;;;;2.72;1.70;;;3.10;77.60;;;;;;5072569;28;20037;-73
2023/12/06 03:57:15;;;;;;;;;;;3.10;77.50;;;;;;5071699;28;20089;-73
2023/12/06 03:59:41;;;;;;;3.25;2.30;;;3.10;78.40;;;;;;5071218;28;20343;-74
2023/12/06 04:02:07;;;;;;;1.65;1.33;;;3.10;78.10;;;;;;5070375;28;20063;-73
2023/12/06 04:04:33;;;;;;;3.47;1.75;;;3.10;77.90;;;;;;5070931;28;20060;-73
2023/12/06 04:06:59;;;;;;;4.45;2.33;;;3.10;77.70;;;;;;5071114;28;20036;-70
2023/12/06 04:09:25;;;;;;;3.53;2.42;;;3.20;77.40;;;;;;5071156;28;20085;-73
2023/12/06 04:11:52;;;;;;;3.72;1.92;;;3.10;78.00;;;;;;5050189;28;20052;-73
2023/12/06 04:14:18;;;;;;;3.03;2.10;;;3.10;77.00;;;;;;5050536;28;20041;-70
2023/12/06 04:16:46;;;;;;;1.90;1.63;;;3.20;76.90;;;;;;5052180;28;20056;-74
2023/12/06 04:19:12;;;;;;;3.70;1.77;;;3.20;76.70;;;;;;5050847;28;20043;-74
2023/12/06 04:21:38;;;;;;;2.03;1.52;;;3.10;76.60;;;;;;5064866;28;20056;-71
2023/12/06 04:24:05;;;;;;;1.95;1.23;;;3.20;76.50;;;;;;5072191;28;20382;-70
2023/12/06 04:26:31;;;;;;;2.70;0.80;;;3.20;76.30;;;;;;5072042;28;20174;-74
2023/12/06 04:28:57;;;;;;;5.65;2.03;;;3.20;76.40;;;;;;5072160;28;20029;-70
2023/12/06 04:31:23;;;;;;;5.05;2.22;;;3.10;76.50;;;;;;5054439;28;20037;-73
2023/12/06 04:33:50;;;;;;;2.72;1.65;;;3.10;76.40;;;;;;5074653;28;20033;-73
2023/12/06 04:36:16;;;;;;;4.18;1.65;;;3.10;76.40;;;;;;5075922;28;20097;-70
2023/12/06 04:38:42;;;;;;;5.47;1.92;;;3.10;76.30;;;;;;5074662;28;20040;-72
2023/12/06 04:41:08;;;;;;;3.00;1.60;;;3.10;76.40;;;;;;5075467;28;20056;-71
2023/12/06 04:43:35;;;;;;;4.05;1.63;;;3.10;76.40;;;;;;5074072;28;20043;-73
2023/12/06 04:46:01;;;;;;;;;;;3.10;76.50;;;;;;5076328;28;20124;-70
2023/12/06 04:48:27;;;;;;;4.13;2.10;;;3.00;76.20;;;;;;5075897;28;19916;-70
2023/12/06 04:50:53;;;;;;;5.50;3.20;;;3.00;76.10;;;;;;5057105;28;20040;-70
2023/12/06 04:53:19;;;;;;;2.80;1.92;;;3.10;76.30;;;;;;5075524;28;20032;-70
2023/12/06 04:55:45;;;;;;;5.35;2.25;;;3.10;76.20;;;;;;5074105;28;20051;-71
2023/12/06 04:58:11;;;;;;;4.43;2.90;;;3.00;76.00;;;;;;5074120;28;20033;-70
2023/12/06 05:00:38;;;;;;;3.85;2.83;;;3.00;75.90;;;;;;5073663;28;20400;-70
2023/12/06 05:03:04;;;;;;;5.97;2.05;;;3.00;75.80;;;;;;5074134;28;20029;-73
2023/12/06 05:05:30;;;;;;;4.78;2.55;;;3.10;76.00;;;;;;5074127;28;20082;-74
2023/12/06 05:07:56;;;;;;;4.93;2.67;;;3.10;75.90;;;;;;5075296;28;20107;-73
2023/12/06 05:10:22;;;;;;;;;;;3.00;75.70;;;;;;5073946;28;20037;-70
2023/12/06 05:12:48;;;;;;;3.28;1.50;;;3.10;75.60;;;;;;5073920;28;19912;-73
2023/12/06 05:15:15;;;;;;;3.35;2.58;;;3.10;75.60;;;;;;5073736;28;20086;-73
2023/12/06 05:17:41;;;;;;;3.00;1.80;;;3.10;75.60;;;;;;5074092;28;20409;-73
2023/12/06 05:20:10;;;;;;;3.25;1.60;;;3.10;75.50;;;;;;5073436;28;20490;-73
2023/12/06 05:22:37;;;;;;;3.92;2.42;;;3.10;75.40;;;;;;5073914;28;20020;-70
2023/12/06 05:25:04;;;;;;;3.72;3.00;;;3.10;75.60;;;;;;5075223;28;20060;-70
2023/12/06 05:27:30;;;;;;;6.05;1.92;;;3.10;75.50;;;;;;5074945;28;20482;-70
2023/12/06 05:29:56;;;;;;;3.58;1.77;;;3.10;75.40;;;;;;5073842;28;20110;-73
2023/12/06 05:32:22;;;;;;;4.10;1.90;;;3.10;75.40;;;;;;5074754;28;20131;-71
2023/12/06 05:34:48;;;;;;;3.72;1.65;;;3.00;75.20;;;;;;5075120;28;20032;-73
2023/12/06 05:37:14;;;;;;;3.33;1.70;;;3.00;75.30;;;;;;5075193;28;20094;-73
2023/12/06 05:39:41;;;;;;;2.60;1.70;;;3.00;75.40;;;;;;5073507;28;20435;-71
2023/12/06 05:42:08;;;;;;;2.30;1.58;;;3.00;75.20;;;;;;5072789;28;20028;-73
2023/12/06 05:44:34;;;;;;;3.42;2.30;;;3.00;76.10;;;;;;5055780;28;20119;-73
2023/12/06 05:47:00;;;;;;;;;;;3.00;75.20;;;;;;5073104;28;20041;-71
2023/12/06 05:49:26;;;;;;;9.80;4.50;;;3.00;75.90;;;;;;5074870;28;19921;-71
2023/12/06 05:51:52;;;;;;;11.40;6.05;;;3.00;75.00;;;;;;5072607;28;20033;-74
2023/12/06 05:54:18;;;;;;;8.82;5.53;;;3.00;75.20;;;;;;5056345;28;20029;-74
2023/12/06 05:56:44;;;;;;;4.45;2.95;;;3.00;75.10;;;;;;5056492;28;20116;-71
2023/12/06 05:59:10;;;;;;;4.93;1.77;;;3.00;75.00;;;;;;5073087;28;20078;-73
2023/12/06 06:01:36;;;;;;;;;;;3.00;74.90;;;;;;5073098;28;20106;-70
2023/12/06 06:04:02;;;;;;;5.60;2.63;;;3.00;74.90;;;;;;5072825;28;20395;-73
2023/12/06 06:09:20;;;;;;;3.30;1.73;;;3.00;74.90;;;;;;5073270;28;20077;-70
2023/12/06 06:11:47;;;;;;;4.30;3.15;;;3.00;75.00;;;;;;5072306;28;20067;-73
2023/12/06 06:14:14;;;;;;;4.32;2.78;;;2.90;74.90;;;;;;5073730;28;20044;-70
2023/12/06 06:16:40;;;;;;;4.90;3.15;;;3.00;75.00;;;;;;5072816;28;20063;-74
2023/12/06 06:19:06;;;;;;;5.38;3.58;;;3.00;75.00;;;;;;5074257;28;20040;-74
2023/12/06 06:21:31;;;;;;;6.65;3.95;;;3.00;75.00;;;;;;5073316;28;20459;-73
2023/12/06 06:23:58;;;;;;;9.20;5.38;;;3.00;75.00;;;;;;5072494;28;20044;-73
2023/12/06 06:26:24;;;;;;;;;;;3.00;75.00;;;;;;5074378;28;20508;-74
2023/12/06 06:28:50;;;;;;;7.72;4.10;;;3.00;75.00;;;;;;5072567;28;19920;-71
2023/12/06 06:31:16;;;;;;;12.02;6.32;;;2.90;75.10;;;;;;5071844;28;20094;-74
2023/12/06 06:33:42;;;;;;;7.63;4.30;;;2.90;75.30;;;;;;5072526;28;20044;-74
2023/12/06 06:36:08;;;;;;;5.18;3.70;;;2.90;75.30;;;;;;5073698;28;20043;-73
2023/12/06 06:38:37;;;;;;;6.88;3.45;;;2.80;75.20;;;;;;5073523;28;20032;-71
2023/12/06 06:41:03;;;;;;;3.97;2.40;;;2.80;75.20;;;;;;5071821;28;20123;-74
2023/12/06 06:43:29;;;;;;;7.05;2.90;;;2.80;75.30;;;;;;5073183;28;20129;-70
2023/12/06 06:45:55;;;;;;;6.20;3.95;;;2.80;75.50;;;;;;5072296;28;20427;-73
2023/12/06 06:48:21;;;;;;;6.40;4.05;;;2.80;75.40;;;;;;5072042;28;20052;-74
2023/12/06 06:50:47;;;;;;;4.05;2.72;;;2.90;75.60;;;;;;5071815;28;20039;-70
2023/12/06 06:53:13;;;;;;;4.85;2.60;;;2.90;75.30;;;;;;5071834;28;20044;-70
2023/12/06 06:55:39;;;;;;;4.70;2.88;;;2.90;75.20;;;;;;5070910;28;20044;-71
2023/12/06 06:58:05;;;;;;;5.38;2.40;;;2.90;75.00;;;;;;5073252;28;20044;-74
2023/12/06 07:00:31;;;;;;;4.60;3.20;;;2.90;74.90;;;;;;5070967;28;20490;-74
2023/12/06 07:02:57;;;;;;;3.45;1.88;;;3.00;75.00;;;;;;5071700;28;20066;-71
2023/12/06 07:05:23;;;;;;;5.25;3.47;;;3.00;74.70;;;;;;5071847;28;20051;-72
2023/12/06 07:07:49;;;;;;;4.00;2.72;;;3.00;74.40;;;;;;5073092;28;20032;-71
2023/12/06 07:10:15;;;;;;;7.15;3.50;;;3.00;74.30;;;;;;5071017;28;20086;-73
2023/12/06 07:12:41;;;;;;;6.50;3.13;;;3.00;74.30;;;;;;5072974;28;20107;-71
2023/12/06 07:15:14;;;;;;;5.93;2.83;;;3.10;74.20;;;;;;5072625;28;20048;-71
2023/12/06 07:17:43;;;;;;;6.53;2.80;;;3.10;73.50;;;;;;5071824;28;20036;-70
2023/12/06 07:20:13;;;;;;;6.70;2.97;;;3.10;73.80;;;;;;5072256;28;20033;-74
2023/12/06 07:22:40;;;;;;;4.68;3.22;;;3.10;73.70;;;;;;5071484;28;20067;-73
2023/12/06 07:25:06;;;;;;;4.70;3.58;;;3.20;73.80;;;;;;5073002;28;20032;-71
2023/12/06 07:27:32;;;;;;;4.45;3.20;;;3.20;73.20;;;;;;5054820;28;20032;-74
2023/12/06 07:29:58;;;;;;;5.80;3.10;;;3.20;73.60;;;;;;5071659;28;20045;-71
2023/12/06 07:32:24;;;;;;;6.90;4.32;;;3.20;73.50;;;;;;5053703;28;20116;-71
2023/12/06 07:34:50;;;;;;;4.43;3.05;;;3.30;73.60;;;;;;5054687;28;20036;-70
2023/12/06 07:37:16;;;;;;;7.45;4.90;;;3.30;73.60;;;;;;5072596;28;20063;-70
2023/12/06 07:39:43;;;;;;;7.35;4.93;;;3.30;73.50;;;;;;5072834;28;20037;-73
2023/12/06 07:42:09;;;;;;;8.25;5.90;;;3.30;74.00;;;;;;5072042;28;20529;-71
2023/12/06 07:44:35;;;;;;;7.65;3.90;;;3.30;74.20;;;;;;5054121;28;20131;-74
2023/12/06 07:47:02;;;;;;;5.82;2.75;;;3.40;74.10;;;;;;5071365;28;20036;-73
2023/12/06 07:49:28;;;;;;;5.70;3.05;;;3.40;73.60;;;;;;5072773;28;20063;-70
2023/12/06 07:51:55;;;;;;;3.40;1.98;;;3.30;75.20;;;;;;5072015;28;20036;-70
2023/12/06 07:54:21;;;;;;;6.00;3.45;;;3.20;76.30;;;;;;5070909;28;20043;-74
2023/12/06 07:56:47;;;;;;;3.05;2.30;;;3.20;75.90;;;;;;5070924;28;20041;-71
2023/12/06 07:59:13;;;;;;;10.57;3.53;;;3.20;76.20;;;;;;5072579;28;20094;-70
2023/12/06 08:01:39;;;;;;;3.42;2.90;;;3.30;76.10;;;;;;5070633;28;20086;-73
2023/12/06 08:04:05;;;;;;;5.60;3.30;;;3.30;75.90;;;;;;5072113;28;20052;-74
2023/12/06 08:06:32;;;;;;;9.02;4.45;;;3.40;75.70;;;;;;5072126;28;20120;-70
2023/12/06 08:08:58;;;;;;;14.98;4.03;;;3.40;75.30;;;;;;5071922;28;20033;-71
2023/12/06 08:11:24;;;;;;;6.00;3.65;;;3.50;75.00;;;;;;5070526;28;20037;-71
2023/12/06 08:13:52;;;;;;;7.18;3.63;;;3.60;74.70;;;;;;5054129;28;20738;-74
2023/12/06 08:16:18;;;;;;;11.13;6.95;;;3.60;74.10;;;;;;5072121;28;20037;-74
2023/12/06 08:18:44;;;;;;;5.63;3.88;;;3.70;73.60;;;;;;5070623;28;20043;-71
2023/12/06 08:21:10;;;;;;;10.45;4.38;;;3.70;72.90;;;;;;5071641;28;20494;-70
2023/12/06 08:23:36;;;;;;;5.05;2.70;;;3.90;72.80;;;;;;5070556;28;20043;-70
2023/12/06 08:26:06;;;;;;;6.38;3.00;;;3.90;72.80;;;;;;5072166;28;20040;-73
2023/12/06 08:28:33;;;;;;;4.72;2.42;;;3.90;72.00;;;;;;5070829;28;20044;-71
2023/12/06 08:30:59;;;;;;;3.88;2.50;;;4.00;72.40;;;;;;5070450;28;20033;-74
2023/12/06 08:33:25;;;;;;;3.90;2.15;;;3.90;72.70;;;;;;5070615;28;20047;-74
2023/12/06 08:35:51;;;;;;;6.15;3.67;;;3.90;73.20;;;;;;5070540;28;20044;-74
2023/12/06 08:38:17;;;;;;;4.93;2.40;;;4.00;73.20;;;;;;5070617;28;20116;-74
2023/12/06 08:40:43;;;;;;;4.50;2.38;;;4.00;72.30;;;;;;5053421;28;20025;-74
2023/12/06 08:43:09;;;;;;;7.05;4.10;;;4.20;71.80;;;;;;5070489;28;20132;-74
2023/12/06 08:45:35;;;;;;;8.23;3.42;;;4.30;71.50;;;;;;5070660;28;20033;-70
2023/12/06 08:48:02;;;;;;;8.57;6.25;;;4.40;71.40;;;;;;5071987;28;20086;-70
2023/12/06 08:50:27;;;;;;;;;;;4.50;71.30;;;;;;5071991;28;20521;-74
2023/12/06 08:52:54;;;;;;;8.93;3.35;;;4.60;71.10;;;;;;5070479;28;19916;-74
2023/12/06 08:55:20;;;;;;;8.68;5.82;;;4.80;70.60;;;;;;5070321;28;20032;-71
2023/12/06 08:57:46;;;;;;;10.10;3.95;;;4.90;70.00;;;;;;5053890;28;20544;-74
2023/12/06 09:00:12;;;;;;;7.45;4.05;;;4.90;69.70;;;;;;5069678;28;20036;-74
2023/12/06 09:02:58;;;;;;;4.22;2.33;;;5.00;69.20;;;;;;5070321;28;20405;-74
2023/12/06 09:05:24;;;;;;;3.72;2.35;;;5.20;67.90;;;;;;5070379;28;20422;-74
2023/12/06 09:07:51;;;;;;;3.25;1.80;;;5.40;67.00;;;;;;5070471;28;20021;-71
2023/12/06 09:10:17;;;;;;;2.15;1.77;;;5.60;66.90;;;;;;5069665;28;20067;-71
2023/12/06 09:12:43;;;;;;;2.92;1.50;;;5.70;66.40;;;;;;5071756;28;20036;-74
2023/12/06 09:15:10;;;;;;;3.53;2.25;;;5.80;65.90;;;;;;5070053;28;20037;-73
2023/12/06 09:17:35;;;;;;;;;;;5.80;65.20;;;;;;5070997;28;20037;-70
2023/12/06 09:20:02;;;;;;;4.32;3.03;;;5.70;65.80;;;;;;5057255;28;19946;-70
2023/12/06 09:22:28;;;;;;;3.67;1.77;;;5.80;65.90;;;;;;5074578;28;20056;-74
2023/12/06 09:24:54;;;;;;;5.95;4.32;;;5.90;65.70;;;;;;5073820;28;20452;-73
2023/12/06 09:27:21;;;;;;;1.00;0.85;;;6.00;64.90;;;;;;5073802;28;20048;-71
2023/12/06 09:29:47;;;;;;;5.40;2.28;;;6.00;65.00;;;;;;5073921;28;20033;-70
2023/12/06 09:32:13;;;;;;;2.55;1.60;;;6.10;65.00;;;;;;5056312;28;20098;-73
2023/12/06 09:34:40;;;;;;;7.60;3.03;;;6.20;65.00;;;;;;5074740;28;20120;-74
2023/12/06 09:37:08;;;;;;;8.32;3.30;;;6.30;64.00;;;;;;5074806;28;20033;-74
2023/12/06 09:39:34;;;;;;;5.60;2.72;;;6.30;63.40;;;;;;5056859;28;20396;-74
2023/12/06 09:42:02;;;;;;;3.92;2.28;;;6.50;63.00;;;;;;5074188;28;20039;-70
2023/12/06 09:44:28;;;;;;;6.10;3.40;;;6.70;62.70;;;;;;5056524;28;20042;-73
2023/12/06 09:46:56;;;;;;;6.82;3.13;;;6.80;62.20;;;;;;5056892;28;20037;-70
2023/12/06 09:49:22;;;;;;;17.27;3.08;;;6.90;61.40;;;;;;5074796;28;20059;-70
2023/12/06 09:51:48;;;;;;;7.75;3.67;;;7.00;60.10;;;;;;5072662;28;20058;-70
2023/12/06 09:54:14;;;;;;;9.30;1.90;;;7.10;60.90;;;;;;5073055;28;20037;-74
2023/12/06 09:56:40;;;;;;;3.80;1.63;;;7.20;60.50;;;;;;5074561;28;20091;-71
2023/12/06 09:59:06;;;;;;;5.10;2.85;;;7.20;61.00;;;;;;5073340;28;20107;-71
2023/12/06 10:01:32;;;;;;;1.63;1.30;;;7.30;60.70;;;;;;5072595;28;20048;-71
2023/12/06 10:03:58;;;;;;;4.68;2.30;;;7.30;61.00;;;;;;5073851;28;20513;-73
2023/12/06 10:06:24;;;;;;;1.40;1.25;;;7.10;61.10;;;;;;5073007;28;20032;-71
2023/12/06 10:08:54;;;;;;;2.85;1.35;;;7.00;61.00;;;;;;5073052;28;20032;-73
2023/12/06 10:11:23;;;;;;;5.90;1.52;;;6.70;60.70;;;;;;5073702;28;20041;-70
2023/12/06 10:13:49;;;;;;;4.07;1.88;;;6.60;61.00;;;;;;5072816;28;20048;-73
2023/12/06 10:16:35;;;;;;;1.33;0.88;;;6.50;61.70;;;;;;5074127;28;20433;-72
2023/12/06 10:19:03;;;;;;;1.48;1.00;;;6.40;62.10;;;;;;5074238;28;20052;-74
2023/12/06 10:21:31;;;;;;;5.30;1.77;;;6.40;62.30;;;;;;5073710;28;20079;-70
2023/12/06 10:24:00;;;;;;;2.70;1.95;;;6.40;62.60;;;;;;5073743;28;20036;-70
2023/12/06 10:26:28;;;;;;;1.45;0.68;;;6.30;62.50;;;;;;5072645;28;20024;-74
2023/12/06 10:28:55;;;;;;;2.60;2.13;;;6.30;62.90;;;;;;5072568;28;20040;-71
2023/12/06 10:31:21;;;;;;;0.70;0.57;;;6.30;62.80;;;;;;5073316;28;20047;-70
2023/12/06 10:33:56;;;;;;;0.75;0.65;;;6.30;62.80;;;;;;5072393;28;20036;-74
2023/12/06 10:36:26;;;;;;;2.75;1.50;;;6.50;62.20;;;;;;5072490;28;20393;-74
2023/12/06 10:38:54;;;;;;;0.52;0.35;;;6.60;61.80;;;;;;5072421;28;20037;-74
2023/12/06 10:41:22;;;;;;;2.85;2.20;;;6.70;61.60;;;;;;5071711;28;20402;-74
2023/12/06 10:43:49;;;;;;;2.80;1.00;;;6.70;61.70;;;;;;5072033;28;20032;-74
2023/12/06 10:46:17;;;;;;;1.75;0.88;;;6.80;61.50;;;;;;5073536;28;20397;-74
2023/12/06 10:48:45;;;;;;;1.95;1.05;;;6.70;61.20;;;;;;5072198;28;20036;-71
2023/12/06 10:51:11;;;;;;;0.90;0.55;;;6.70;61.90;;;;;;5071682;28;20449;-74
2023/12/06 10:53:38;;;;;;;;;;;6.70;61.20;;;;;;5072203;28;20036;-72
2023/12/06 10:56:06;;;;;;;4.85;1.85;;;6.80;61.40;;;;;;5072069;28;19916;-70
2023/12/06 10:58:33;;;;;;;3.97;2.17;;;6.80;61.10;;;;;;5071953;28;20367;-74
2023/12/06 11:01:00;;;;;;;1.80;1.13;;;6.80;61.10;;;;;;5071365;28;20086;-70
2023/12/06 11:03:26;;;;;;;5.43;4.22;;;6.80;60.90;;;;;;5071554;28;20543;-74
2023/12/06 11:05:56;;;;;;;7.47;2.33;;;6.80;61.50;;;;;;5071860;28;20025;-74
2023/12/06 11:09:00;;;;;;;2.08;1.38;;;6.70;61.70;;;;;;5071873;28;20523;-74
2023/12/06 11:11:55;;;;;;;2.20;1.20;;;6.80;61.40;;;;;;5072633;28;20036;-70
2023/12/06 11:15:05;;;;;;;1.48;1.02;;;6.70;62.00;;;;;;5071567;28;20176;-70
2023/12/06 11:18:12;;;;;;;5.88;2.78;;;6.60;62.00;;;;;;5073499;28;20033;-70
2023/12/06 11:20:40;;;;;;;9.05;2.50;;;6.60;62.60;;;;;;5072171;28;20068;-74
2023/12/06 11:23:07;;;;;;;3.88;2.97;;;6.50;62.30;;;;;;5071435;28;20052;-74
2023/12/06 11:25:33;;;;;;;2.55;2.35;;;6.50;62.30;;;;;;5071597;28;20260;-70
2023/12/06 11:28:00;;;;;;;2.25;0.90;;;6.50;62.50;;;;;;5071500;28;20020;-70
2023/12/06 11:30:27;;;;;;;4.10;1.60;;;6.60;62.20;;;;;;5070916;28;20413;-70
2023/12/06 11:32:57;;;;;;;5.57;2.38;;;6.60;62.10;;;;;;5072588;28;20032;-74
2023/12/06 11:35:24;;;;;;;5.20;3.47;;;6.60;62.00;;;;;;5054600;28;20024;-71
2023/12/06 11:37:53;;;;;;;4.82;3.40;;;6.70;61.60;;;;;;5071712;28;20428;-70
2023/12/06 11:40:42;;;;;;;2.35;1.25;;;6.80;60.90;;;;;;5070567;28;20043;-71
2023/12/06 11:43:08;;;;;;;1.35;1.23;;;6.90;61.10;;;;;;5072162;28;20064;-70
2023/12/06 11:45:39;;;;;;;14.15;1.95;;;7.00;60.80;;;;;;5072443;28;20024;-70
2023/12/06 11:48:06;;;;;;;2.60;2.08;;;7.20;60.40;;;;;;5072522;28;20074;-70
2023/12/06 11:50:46;;;;;;;;;;;7.30;59.90;;;;;;5071121;28;20075;-74
2023/12/06 11:53:12;;;;;;;5.95;1.52;;;7.40;59.50;;;;;;5072351;28;19921;-74
2023/12/06 11:55:58;;;;;;;1.83;1.52;;;7.40;58.90;;;;;;5072218;28;20021;-74
2023/12/06 11:58:43;;;;;;;3.70;2.30;;;7.50;59.10;;;;;;5071268;28;20538;-74
2023/12/06 12:01:10;;;;;;;2.13;1.05;;;7.50;59.40;;;;;;5070390;28;20048;-70
2023/12/06 12:03:36;;;;;;;;;;;7.40;59.40;;;;;;5071217;28;20490;-71
2023/12/06 12:06:03;;;;;;;1.75;0.95;;;7.30;59.20;;;;;;5072505;28;19916;-74
2023/12/06 12:08:31;;;;;;;2.38;1.65;;;7.30;59.30;;;;;;5071075;28;20124;-70
2023/12/06 12:10:58;;;;;;;1.23;1.08;;;7.30;59.20;;;;;;5070271;28;20062;-74
2023/12/06 12:13:24;;;;;;;1.73;0.63;;;7.20;59.60;;;;;;5070954;28;20041;-70
2023/12/06 12:16:12;;;;;;;2.85;1.45;;;7.30;59.50;;;;;;5070780;28;20545;-71
2023/12/06 12:18:38;;;;;;;3.85;2.03;;;7.20;59.40;;;;;;5054510;28;20494;-71
2023/12/06 12:21:26;;;;;;;4.00;0.75;;;7.20;59.60;;;;;;5070353;28;20485;-71
2023/12/06 12:23:55;;;;;;;0.85;0.85;;;7.10;59.60;;;;;;5070593;28;20041;-70
2023/12/06 12:26:21;;;;;;;0.55;0.35;;;7.10;60.00;;;;;;5070917;28;20029;-70
2023/12/06 12:28:47;;;;;;;0.90;0.80;;;7.10;59.90;;;;;;5072177;28;20071;-73
2023/12/06 12:31:32;;;;;;;0.68;0.50;;;7.00;59.70;;;;;;5070338;28;20477;-73
2023/12/06 12:33:59;;;;;;;3.28;0.93;;;6.80;59.80;;;;;;5072050;28;20036;-73
2023/12/06 12:36:26;;;;;;;1.08;0.73;;;6.80;60.20;;;;;;5054015;28;20032;-70
2023/12/06 12:38:52;;;;;;;0.45;0.38;;;6.70;60.50;;;;;;5070597;28;20044;-70
2023/12/06 12:41:18;;;;;;;0.43;0.32;;;6.60;60.70;;;;;;5071466;28;20406;-73
2023/12/06 12:43:44;;;;;;;0.70;0.60;;;6.50;60.70;;;;;;5070464;28;20045;-74
2023/12/06 12:46:11;;;;;;;0.90;0.60;;;6.50;61.00;;;;;;5070833;28;20048;-71
2023/12/06 12:48:38;;;;;;;1.02;0.45;;;6.40;60.80;;;;;;5070660;28;20043;-70
2023/12/06 12:51:23;;;;;;;1.30;0.95;;;6.40;60.20;;;;;;5071214;28;20402;-73
2023/12/06 12:53:49;;;;;;;4.32;3.15;;;6.40;60.90;;;;;;5055491;28;20033;-70
2023/12/06 12:56:17;;;;;;;1.05;0.68;;;6.30;61.50;;;;;;5074168;28;20515;-70
2023/12/06 12:58:46;;;;;;;3.15;1.70;;;6.30;61.00;;;;;;5075745;28;20166;-71
2023/12/06 13:01:12;;;;;;;2.45;0.80;;;6.30;61.50;;;;;;5057317;28;20494;-71
2023/12/06 13:03:38;;;;;;;2.60;1.40;;;6.30;62.00;;;;;;5073987;28;20064;-71